Time;durP1;ratioP1;P1;durP2;ratioP2;P2;SDS_P1;SDS_P2;PMS_P1;PMS_P2;Temp;Humidity;BMP_temperature;BMP_pressure;BME280_temperature;BME280_humidity;BME280_pressure;Samples;Min_cycle;Max_cycle;Signal;HPM_P1;HPM_P2
2023/08/28 00:01:19;;;;;;;0.80;0.80;;;14.90;99.90;;;;;;5114601;28;20948;-82
2023/08/28 00:03:47;;;;;;;3.73;1.83;;;14.80;99.90;;;;;;5113666;28;20495;-82
2023/08/28 00:06:15;;;;;;;1.07;0.83;;;14.80;99.90;;;;;;5114387;28;20458;-81
2023/08/28 00:08:41;;;;;;;0.80;0.70;;;14.90;99.90;;;;;;5114667;28;20542;-81
2023/08/28 00:11:08;;;;;;;1.13;0.60;;;14.90;99.90;;;;;;5114680;28;20454;-81
2023/08/28 00:13:35;;;;;;;0.60;0.60;;;14.90;99.90;;;;;;5114582;28;20439;-81
2023/08/28 00:16:02;;;;;;;0.77;0.77;;;14.80;99.90;;;;;;5114223;28;20959;-81
2023/08/28 00:18:29;;;;;;;0.90;0.70;;;14.80;99.90;;;;;;5114243;28;20439;-81
2023/08/28 00:20:57;;;;;;;1.83;0.77;;;14.80;99.90;;;;;;5114447;28;20439;-81
2023/08/28 00:23:24;;;;;;;0.50;0.50;;;14.80;99.90;;;;;;5114110;28;20454;-82
2023/08/28 00:25:50;;;;;;;0.80;0.80;;;14.80;99.90;;;;;;5114277;28;20482;-81
2023/08/28 00:28:17;;;;;;;2.73;0.70;;;14.80;99.90;;;;;;5114342;28;20451;-81
2023/08/28 00:30:44;;;;;;;0.70;0.70;;;14.80;99.90;;;;;;5113987;28;20447;-81
2023/08/28 00:33:10;;;;;;;2.10;0.77;;;14.80;99.90;;;;;;5114232;28;20443;-81
2023/08/28 00:35:37;;;;;;;0.80;0.53;;;14.80;99.90;;;;;;5114162;28;20462;-81
2023/08/28 00:38:05;;;;;;;2.20;0.63;;;14.80;99.90;;;;;;5114019;28;20805;-82
2023/08/28 00:40:32;;;;;;;1.20;0.50;;;14.80;99.90;;;;;;5114169;28;20445;-81
2023/08/28 00:42:59;;;;;;;0.60;0.60;;;14.80;99.90;;;;;;5114122;28;20450;-81
2023/08/28 00:45:26;;;;;;;0.73;0.73;;;14.70;99.90;;;;;;5114201;28;20486;-81
2023/08/28 00:47:52;;;;;;;0.60;0.60;;;14.70;99.90;;;;;;5114055;28;20439;-82
2023/08/28 00:50:19;;;;;;;0.60;0.60;;;14.70;99.90;;;;;;5113985;28;20454;-81
2023/08/28 00:52:46;;;;;;;0.70;0.60;;;14.70;99.90;;;;;;5113855;28;20952;-81
2023/08/28 00:55:14;;;;;;;4.93;0.63;;;14.70;99.90;;;;;;5113890;28;20486;-82
2023/08/28 00:57:41;;;;;;;0.70;0.50;;;14.70;99.90;;;;;;5113921;28;20453;-82
2023/08/28 01:00:10;;;;;;;0.60;0.60;;;14.70;99.90;;;;;;5113665;28;20798;-81
2023/08/28 01:02:38;;;;;;;0.60;0.60;;;14.70;99.90;;;;;;5113860;28;20458;-81
2023/08/28 01:05:05;;;;;;;0.97;0.97;;;14.80;99.90;;;;;;5113296;28;20495;-82
2023/08/28 01:07:38;;;;;;;0.90;0.60;;;14.70;99.90;;;;;;5113749;28;20438;-82
2023/08/28 01:10:16;;;;;;;1.10;0.70;;;14.70;99.90;;;;;;5114236;28;20443;-82
2023/08/28 01:12:54;;;;;;;0.70;0.53;;;14.70;99.90;;;;;;5113849;28;20782;-81
2023/08/28 01:15:22;;;;;;;1.57;0.80;;;14.70;99.90;;;;;;5117633;28;20466;-81
2023/08/28 01:17:53;;;;;;;0.87;0.70;;;14.70;99.90;;;;;;5118052;28;20821;-81
2023/08/28 01:20:22;;;;;;;1.03;0.80;;;14.60;99.90;;;;;;5117946;28;20796;-82
2023/08/28 01:22:59;;;;;;;3.60;0.60;;;14.70;99.90;;;;;;5117610;28;20954;-81
2023/08/28 01:25:28;;;;;;;0.50;0.50;;;14.70;99.90;;;;;;5117791;28;20482;-82
2023/08/28 01:27:56;;;;;;;0.50;0.50;;;14.70;99.90;;;;;;5118053;28;20496;-81
2023/08/28 01:30:23;;;;;;;0.67;0.53;;;14.70;99.90;;;;;;5117734;28;20443;-81
2023/08/28 01:32:50;;;;;;;3.40;0.53;;;14.70;99.90;;;;;;5117714;28;20454;-82
2023/08/28 01:35:20;;;;;;;1.00;0.70;;;14.60;99.90;;;;;;5117607;28;20512;-81
2023/08/28 01:38:02;;;;;;;0.90;0.77;;;14.60;99.90;;;;;;5117624;28;20438;-81
2023/08/28 01:40:39;;;;;;;2.87;1.00;;;14.60;99.90;;;;;;5117300;28;20837;-81
2023/08/28 01:43:09;;;;;;;0.60;0.57;;;14.60;99.90;;;;;;5117603;28;20438;-82
2023/08/28 01:45:37;;;;;;;0.50;0.50;;;14.60;99.90;;;;;;5117362;28;20486;-81
2023/08/28 01:48:05;;;;;;;0.70;0.40;;;14.60;99.90;;;;;;5117499;28;20427;-81
2023/08/28 01:50:32;;;;;;;0.80;0.60;;;14.60;99.90;;;;;;5117063;28;20933;-81
2023/08/28 01:52:58;;;;;;;0.50;0.50;;;14.60;99.90;;;;;;5117006;28;20454;-81
2023/08/28 01:55:53;;;;;;;4.20;0.80;;;14.60;99.90;;;;;;5116982;28;20459;-81
2023/08/28 01:58:21;;;;;;;1.27;0.73;;;14.60;99.90;;;;;;5106588;28;20463;-81
2023/08/28 02:00:48;;;;;;;2.53;0.70;;;14.50;99.90;;;;;;5117203;28;20450;-81
2023/08/28 02:03:14;;;;;;;0.60;0.60;;;14.60;99.90;;;;;;5116902;28;20481;-82
2023/08/28 02:05:41;;;;;;;1.27;0.80;;;14.50;99.90;;;;;;5117011;28;20486;-81
2023/08/28 02:08:08;;;;;;;1.60;0.77;;;14.60;99.90;;;;;;5116999;28;20809;-81
2023/08/28 02:10:35;;;;;;;0.60;0.60;;;14.60;99.90;;;;;;5117052;28;20443;-81
2023/08/28 02:13:01;;;;;;;0.97;0.80;;;14.50;99.90;;;;;;5116672;28;20443;-81
2023/08/28 02:15:29;;;;;;;0.40;0.40;;;14.60;99.90;;;;;;5116875;28;20459;-81
2023/08/28 02:17:56;;;;;;;0.70;0.60;;;14.50;99.90;;;;;;5116898;28;20443;-81
2023/08/28 02:20:23;;;;;;;5.60;0.80;;;14.60;99.90;;;;;;5116474;28;20931;-81
2023/08/28 02:22:50;;;;;;;0.67;0.67;;;14.50;99.90;;;;;;5116797;28;20526;-81
2023/08/28 02:25:20;;;;;;;1.07;0.57;;;14.50;99.90;;;;;;5115367;28;21016;-81
2023/08/28 02:27:47;;;;;;;0.50;0.50;;;14.50;99.90;;;;;;5116723;28;20427;-81
2023/08/28 02:30:14;;;;;;;0.70;0.50;;;14.50;99.90;;;;;;5116557;28;20448;-81
2023/08/28 02:32:42;;;;;;;0.60;0.60;;;14.50;99.90;;;;;;5116608;27;20443;-81
2023/08/28 02:35:09;;;;;;;0.80;0.80;;;14.50;99.90;;;;;;5116485;28;20454;-81
2023/08/28 02:37:36;;;;;;;0.60;0.50;;;14.50;99.90;;;;;;5116130;28;20451;-81
2023/08/28 02:40:03;;;;;;;0.83;0.80;;;14.50;99.90;;;;;;5116723;28;20443;-81
2023/08/28 02:42:30;;;;;;;0.47;0.47;;;14.50;99.90;;;;;;5116110;27;20450;-81
2023/08/28 02:44:57;;;;;;;1.20;0.70;;;14.50;99.90;;;;;;5115880;28;20860;-81
2023/08/28 02:47:24;;;;;;;1.50;0.80;;;14.50;99.90;;;;;;5116022;27;20924;-81
2023/08/28 02:49:52;;;;;;;1.00;0.70;;;14.50;99.90;;;;;;5116187;28;20451;-81
2023/08/28 02:52:19;;;;;;;0.50;0.50;;;14.50;99.90;;;;;;5115954;28;20435;-81
2023/08/28 02:54:46;;;;;;;0.57;0.50;;;14.40;99.90;;;;;;5116137;28;20439;-81
2023/08/28 02:57:12;;;;;;;4.20;0.67;;;14.40;99.90;;;;;;5116087;28;20447;-81
2023/08/28 02:59:39;;;;;;;0.50;0.50;;;14.40;99.90;;;;;;5116336;28;20466;-81
2023/08/28 03:02:06;;;;;;;1.90;0.63;;;14.40;99.90;;;;;;5115763;28;20458;-81
2023/08/28 03:04:34;;;;;;;0.40;0.40;;;14.40;99.90;;;;;;5115489;28;20528;-81
2023/08/28 03:07:02;;;;;;;0.93;0.70;;;14.40;99.90;;;;;;5115929;28;20542;-82
2023/08/28 03:09:29;;;;;;;0.70;0.60;;;14.40;99.90;;;;;;5115908;28;20446;-81
2023/08/28 03:11:56;;;;;;;0.60;0.60;;;14.40;99.90;;;;;;5115841;28;20453;-82
2023/08/28 03:14:23;;;;;;;0.50;0.50;;;14.40;99.90;;;;;;5115802;28;20812;-81
2023/08/28 03:16:49;;;;;;;0.70;0.60;;;14.50;99.90;;;;;;5115617;28;20458;-81
2023/08/28 03:19:16;;;;;;;0.83;0.80;;;14.40;99.90;;;;;;5116002;28;20784;-81
2023/08/28 03:21:43;;;;;;;0.50;0.50;;;14.40;99.90;;;;;;5115304;28;20928;-81
2023/08/28 03:24:11;;;;;;;1.10;0.60;;;14.40;99.90;;;;;;5115591;27;20443;-81
2023/08/28 03:26:38;;;;;;;0.70;0.50;;;14.40;99.90;;;;;;5115348;28;20840;-81
2023/08/28 03:29:05;;;;;;;0.60;0.60;;;14.50;99.90;;;;;;5115724;28;20443;-81
2023/08/28 03:31:31;;;;;;;1.00;0.70;;;14.40;99.90;;;;;;5115440;28;20447;-81
2023/08/28 03:34:00;;;;;;;2.50;0.60;;;14.40;99.90;;;;;;5115410;27;20553;-81
2023/08/28 03:36:26;;;;;;;0.50;0.50;;;14.40;99.90;;;;;;5115419;28;20459;-81
2023/08/28 03:38:53;;;;;;;0.80;0.73;;;14.40;99.90;;;;;;5114960;28;20455;-82
2023/08/28 03:41:21;;;;;;;0.87;0.80;;;14.40;99.90;;;;;;5115256;28;20443;-82
2023/08/28 03:43:48;;;;;;;0.90;0.50;;;14.40;99.90;;;;;;5115204;28;20451;-81
2023/08/28 03:46:15;;;;;;;1.00;0.50;;;14.30;99.90;;;;;;5114609;28;20486;-82
2023/08/28 03:48:41;;;;;;;0.97;0.80;;;14.40;99.90;;;;;;5114797;28;20940;-81
2023/08/28 03:51:08;;;;;;;0.67;0.67;;;14.30;99.90;;;;;;5114715;28;20450;-82
2023/08/28 03:53:35;;;;;;;0.90;0.60;;;14.30;99.90;;;;;;5115017;28;20443;-81
2023/08/28 03:56:02;;;;;;;1.03;0.70;;;14.40;99.90;;;;;;5114901;27;20459;-82
2023/08/28 03:58:30;;;;;;;2.63;1.20;;;14.30;99.90;;;;;;5114597;28;20450;-82
2023/08/28 04:00:57;;;;;;;0.60;0.60;;;14.40;99.90;;;;;;5114874;28;20439;-81
2023/08/28 04:03:24;;;;;;;0.67;0.57;;;14.30;99.90;;;;;;5114815;28;20542;-82
2023/08/28 04:05:52;;;;;;;2.20;0.60;;;14.30;99.90;;;;;;5114671;28;20479;-81
2023/08/28 04:08:21;;;;;;;0.70;0.70;;;14.40;99.90;;;;;;5114736;28;20442;-82
2023/08/28 04:10:47;;;;;;;0.97;0.60;;;14.40;99.90;;;;;;5114663;28;20827;-81
2023/08/28 04:13:14;;;;;;;1.27;1.00;;;14.30;99.90;;;;;;5114867;27;20439;-81
2023/08/28 04:15:42;;;;;;;0.40;0.40;;;14.30;99.90;;;;;;5114225;28;20994;-81
2023/08/28 04:18:09;;;;;;;0.70;0.60;;;14.30;99.90;;;;;;5114576;28;20549;-82
2023/08/28 04:20:36;;;;;;;1.00;0.60;;;14.30;99.90;;;;;;5114502;28;20447;-81
2023/08/28 04:23:03;;;;;;;0.80;0.80;;;14.30;99.90;;;;;;5114138;28;20450;-82
2023/08/28 04:25:30;;;;;;;7.80;0.90;;;14.40;99.90;;;;;;5114293;28;20482;-81
2023/08/28 04:27:57;;;;;;;0.70;0.70;;;14.20;99.90;;;;;;5114171;28;20542;-82
2023/08/28 04:30:23;;;;;;;3.33;0.73;;;14.40;99.90;;;;;;5114294;28;20439;-81
2023/08/28 04:32:52;;;;;;;0.97;0.67;;;14.40;99.90;;;;;;5114290;28;20447;-81
2023/08/28 04:35:18;;;;;;;0.50;0.50;;;14.30;99.90;;;;;;5114190;28;20463;-82
2023/08/28 04:37:45;;;;;;;0.80;0.63;;;14.40;99.90;;;;;;5114211;28;20439;-81
2023/08/28 04:40:12;;;;;;;0.80;0.67;;;14.30;99.90;;;;;;5114141;28;20458;-82
2023/08/28 04:42:39;;;;;;;0.50;0.50;;;14.30;99.90;;;;;;5114149;28;20451;-81
2023/08/28 04:45:06;;;;;;;0.80;0.80;;;14.40;99.90;;;;;;5113973;28;20489;-81
2023/08/28 04:47:33;;;;;;;1.03;0.90;;;14.30;99.90;;;;;;5114052;28;20445;-81
2023/08/28 04:50:01;;;;;;;1.27;0.70;;;14.30;99.90;;;;;;5113302;28;20453;-81
2023/08/28 04:52:28;;;;;;;0.80;0.50;;;14.30;99.90;;;;;;5113674;28;20966;-81
2023/08/28 04:54:55;;;;;;;0.60;0.60;;;14.30;99.90;;;;;;5113903;28;20459;-81
2023/08/28 04:57:22;;;;;;;1.13;0.70;;;14.30;99.90;;;;;;5113929;28;20461;-81
2023/08/28 04:59:48;;;;;;;2.70;0.73;;;14.30;99.90;;;;;;5113875;28;20435;-81
2023/08/28 05:02:15;;;;;;;0.60;0.60;;;14.30;99.90;;;;;;5113889;28;20809;-82
2023/08/28 05:04:42;;;;;;;2.10;0.97;;;14.30;99.90;;;;;;5113358;28;20479;-81
2023/08/28 05:07:11;;;;;;;1.27;0.60;;;14.30;99.90;;;;;;5113730;28;20485;-81
2023/08/28 05:09:38;;;;;;;1.53;1.13;;;14.40;99.90;;;;;;5113811;28;20478;-81
2023/08/28 05:12:05;;;;;;;0.60;0.60;;;14.40;99.90;;;;;;5113471;28;20442;-82
2023/08/28 05:14:31;;;;;;;0.80;0.80;;;14.30;99.90;;;;;;5113633;28;20455;-81
2023/08/28 05:16:58;;;;;;;0.60;0.60;;;14.30;99.90;;;;;;5113413;28;20932;-81
2023/08/28 05:19:25;;;;;;;1.77;1.00;;;14.40;99.90;;;;;;5113667;28;20446;-81
2023/08/28 05:21:52;;;;;;;2.60;1.00;;;14.40;99.90;;;;;;5113670;28;20450;-81
2023/08/28 05:24:20;;;;;;;0.80;0.70;;;14.40;99.90;;;;;;5113664;28;20829;-82
2023/08/28 05:26:46;;;;;;;0.67;0.40;;;14.30;99.90;;;;;;5113472;28;20471;-82
2023/08/28 05:29:13;;;;;;;3.80;0.70;;;14.30;99.90;;;;;;5113618;28;20446;-81
2023/08/28 05:31:40;;;;;;;0.83;0.60;;;14.30;99.90;;;;;;5113559;28;20439;-81
2023/08/28 05:34:07;;;;;;;2.07;0.70;;;14.30;99.90;;;;;;5113578;28;20449;-81
2023/08/28 05:36:33;;;;;;;1.20;0.77;;;14.30;99.90;;;;;;5113502;28;20463;-81
2023/08/28 05:39:00;;;;;;;0.60;0.50;;;14.40;99.90;;;;;;5113217;28;20948;-82
2023/08/28 05:41:28;;;;;;;0.80;0.80;;;14.30;99.90;;;;;;5113243;28;20431;-82
2023/08/28 05:43:55;;;;;;;1.30;1.10;;;14.30;99.90;;;;;;5113451;28;20446;-81
2023/08/28 05:46:22;;;;;;;3.63;0.80;;;14.40;99.90;;;;;;5113037;28;20479;-85
2023/08/28 05:48:48;;;;;;;0.53;0.53;;;14.40;99.90;;;;;;5113340;28;20450;-86
2023/08/28 05:51:15;;;;;;;2.43;1.07;;;14.40;99.90;;;;;;5113590;28;20443;-86
2023/08/28 05:53:42;;;;;;;1.13;0.73;;;14.80;99.90;;;;;;5113306;28;20935;-86
2023/08/28 05:56:08;;;;;;;2.80;0.80;;;14.40;99.90;;;;;;5113557;28;20462;-86
2023/08/28 05:58:37;;;;;;;0.90;0.83;;;14.40;99.90;;;;;;5113571;28;20435;-86
2023/08/28 06:01:04;;;;;;;0.67;0.67;;;14.40;99.90;;;;;;5115124;28;20443;-86
2023/08/28 06:03:30;;;;;;;1.07;1.00;;;14.40;99.90;;;;;;5117288;28;20520;-86
2023/08/28 06:05:57;;;;;;;1.63;0.90;;;14.50;99.90;;;;;;5117252;28;20490;-86
2023/08/28 06:08:24;;;;;;;1.00;0.90;;;14.40;99.90;;;;;;5117410;28;20448;-86
2023/08/28 06:10:51;;;;;;;1.77;1.07;;;14.40;99.90;;;;;;5117213;28;20451;-86
2023/08/28 06:13:17;;;;;;;1.63;1.27;;;14.50;99.90;;;;;;5117361;28;20526;-86
2023/08/28 06:15:45;;;;;;;4.60;1.10;;;14.50;99.90;;;;;;5116847;28;20878;-86
2023/08/28 06:18:12;;;;;;;1.30;1.20;;;14.40;99.90;;;;;;5116910;28;20946;-85
2023/08/28 06:20:39;;;;;;;1.13;0.73;;;14.50;99.90;;;;;;5117087;28;20446;-86
2023/08/28 06:23:06;;;;;;;1.00;0.60;;;14.50;99.90;;;;;;5117146;28;20442;-86
2023/08/28 06:25:32;;;;;;;2.03;0.70;;;14.50;99.90;;;;;;5116695;28;20450;-86
2023/08/28 06:27:59;;;;;;;1.13;1.00;;;14.60;99.90;;;;;;5116937;27;20443;-86
2023/08/28 06:30:26;;;;;;;7.80;1.07;;;14.70;99.90;;;;;;5116636;28;20951;-86
2023/08/28 06:32:54;;;;;;;1.10;0.77;;;14.70;99.90;;;;;;5116912;28;20435;-86
2023/08/28 06:35:21;;;;;;;7.40;0.90;;;14.70;99.90;;;;;;5116814;28;20490;-86
2023/08/28 06:37:47;;;;;;;3.90;1.00;;;14.70;99.90;;;;;;5116970;28;20822;-86
2023/08/28 06:40:14;;;;;;;1.30;1.20;;;14.70;99.90;;;;;;5116538;28;20439;-86
2023/08/28 06:42:41;;;;;;;1.03;0.90;;;14.80;99.90;;;;;;5116750;28;20450;-86
2023/08/28 06:45:09;;;;;;;1.23;1.13;;;14.80;99.90;;;;;;5116374;28;20474;-86
2023/08/28 06:47:36;;;;;;;1.13;1.00;;;14.80;99.90;;;;;;5116555;28;20479;-86
2023/08/28 06:50:04;;;;;;;1.43;1.13;;;14.80;99.90;;;;;;5116333;28;20439;-87
2023/08/28 06:52:31;;;;;;;1.13;1.00;;;14.80;99.90;;;;;;5116155;28;20453;-87
2023/08/28 06:54:58;;;;;;;1.07;1.00;;;14.80;99.90;;;;;;5116523;28;20459;-87
2023/08/28 06:57:25;;;;;;;2.73;1.20;;;14.90;99.90;;;;;;5116139;28;20507;-86
2023/08/28 06:59:53;;;;;;;3.43;1.70;;;14.90;99.90;;;;;;5116463;28;20811;-86
2023/08/28 07:02:20;;;;;;;2.57;1.00;;;14.90;99.90;;;;;;5116537;28;20443;-87
2023/08/28 07:04:47;;;;;;;0.83;0.83;;;14.90;99.90;;;;;;5115951;28;20475;-87
2023/08/28 07:07:17;;;;;;;2.57;0.90;;;14.90;99.90;;;;;;5116465;28;20479;-87
2023/08/28 07:09:44;;;;;;;3.47;1.50;;;14.90;99.90;;;;;;5116393;28;20442;-87
2023/08/28 07:12:11;;;;;;;1.00;0.90;;;14.80;99.90;;;;;;5115612;28;20435;-87
2023/08/28 07:14:37;;;;;;;1.23;1.10;;;14.90;99.90;;;;;;5116266;28;20446;-87
2023/08/28 07:17:04;;;;;;;4.77;1.23;;;14.90;99.90;;;;;;5116491;28;20434;-87
2023/08/28 07:19:31;;;;;;;1.20;1.10;;;14.90;99.90;;;;;;5116251;28;20435;-87
2023/08/28 07:22:00;;;;;;;5.30;1.07;;;15.00;99.90;;;;;;5115961;28;20445;-81
2023/08/28 07:24:28;;;;;;;2.10;1.00;;;15.00;99.90;;;;;;5116277;28;20451;-81
2023/08/28 07:26:54;;;;;;;1.37;1.10;;;15.00;99.90;;;;;;5115426;27;20563;-81
2023/08/28 07:29:21;;;;;;;2.70;1.73;;;14.90;99.90;;;;;;5115300;28;20450;-81
2023/08/28 07:31:48;;;;;;;1.87;1.43;;;14.80;99.90;;;;;;5115406;28;20443;-82
2023/08/28 07:34:14;;;;;;;1.40;1.30;;;14.90;99.90;;;;;;5115437;28;20439;-81
2023/08/28 07:36:43;;;;;;;2.57;1.40;;;14.80;99.90;;;;;;5115046;28;20831;-81
2023/08/28 07:39:10;;;;;;;1.13;1.13;;;14.80;99.90;;;;;;5115305;28;20451;-81
2023/08/28 07:41:38;;;;;;;1.67;1.30;;;14.80;99.90;;;;;;5114964;28;20481;-81
2023/08/28 07:44:05;;;;;;;3.30;1.60;;;14.80;99.90;;;;;;5114949;28;20443;-81
2023/08/28 07:46:32;;;;;;;1.20;1.10;;;14.90;99.90;;;;;;5114732;28;20482;-81
2023/08/28 07:48:59;;;;;;;2.27;1.33;;;14.90;99.90;;;;;;5115119;28;20450;-81
2023/08/28 07:51:26;;;;;;;2.23;1.73;;;14.90;99.90;;;;;;5114733;28;21050;-81
2023/08/28 07:53:54;;;;;;;1.23;1.13;;;14.90;99.90;;;;;;5115057;27;20453;-81
2023/08/28 07:56:21;;;;;;;2.07;1.43;;;15.00;99.90;;;;;;5114799;28;20562;-81
2023/08/28 07:58:49;;;;;;;1.90;1.20;;;15.10;99.90;;;;;;5114976;28;20536;-81
2023/08/28 08:01:16;;;;;;;2.60;1.63;;;15.20;99.90;;;;;;5114884;28;20435;-81
2023/08/28 08:03:42;;;;;;;1.47;1.20;;;15.20;99.90;;;;;;5114605;28;20851;-81
2023/08/28 08:06:09;;;;;;;1.20;1.10;;;15.10;99.90;;;;;;5114633;28;20473;-81
2023/08/28 08:08:36;;;;;;;3.00;1.60;;;15.20;99.90;;;;;;5114445;28;20438;-81
2023/08/28 08:11:02;;;;;;;0.90;0.90;;;15.20;99.90;;;;;;5114416;28;20443;-81
2023/08/28 08:13:30;;;;;;;1.53;1.00;;;15.20;99.90;;;;;;5114552;28;20446;-81
2023/08/28 08:15:58;;;;;;;1.30;1.20;;;15.20;99.90;;;;;;5114774;28;20455;-81
2023/08/28 08:18:24;;;;;;;2.17;1.43;;;15.20;99.90;;;;;;5114655;28;20454;-81
2023/08/28 08:20:51;;;;;;;1.10;1.10;;;15.20;99.90;;;;;;5114204;28;20450;-79
2023/08/28 08:23:18;;;;;;;1.10;0.90;;;15.20;99.90;;;;;;5113779;28;20451;-81
2023/08/28 08:25:45;;;;;;;1.37;0.93;;;15.20;99.90;;;;;;5114375;28;20469;-81
2023/08/28 08:28:12;;;;;;;1.20;1.10;;;15.30;99.90;;;;;;5114000;28;21111;-81
2023/08/28 08:30:39;;;;;;;0.90;0.83;;;15.30;99.90;;;;;;5114192;28;20493;-81
2023/08/28 08:33:07;;;;;;;1.53;1.23;;;15.20;99.90;;;;;;5114045;28;20439;-81
2023/08/28 08:35:34;;;;;;;1.10;1.00;;;15.20;99.90;;;;;;5114086;28;20459;-80
2023/08/28 08:38:01;;;;;;;0.80;0.80;;;15.20;99.90;;;;;;5114188;28;20445;-80
2023/08/28 08:40:28;;;;;;;1.57;1.00;;;15.30;99.90;;;;;;5114185;28;20443;-81
2023/08/28 08:42:55;;;;;;;0.90;0.80;;;15.30;99.90;;;;;;5114081;28;20439;-81
2023/08/28 08:45:26;;;;;;;1.03;1.03;;;15.30;99.90;;;;;;5113884;28;20485;-81
2023/08/28 08:47:55;;;;;;;1.30;0.83;;;15.20;99.90;;;;;;5113882;28;20471;-82
2023/08/28 08:50:25;;;;;;;0.70;0.70;;;15.20;99.90;;;;;;5113994;28;20530;-81
2023/08/28 08:52:51;;;;;;;1.07;0.80;;;15.20;99.90;;;;;;5114006;28;20439;-81
2023/08/28 08:55:24;;;;;;;1.20;1.10;;;15.20;99.90;;;;;;5113603;28;20470;-81
2023/08/28 08:57:55;;;;;;;0.80;0.80;;;15.20;99.90;;;;;;5113692;28;20423;-81
2023/08/28 09:00:22;;;;;;;1.10;1.00;;;15.10;99.90;;;;;;5114074;28;20598;-81
2023/08/28 09:02:50;;;;;;;0.93;0.93;;;15.10;99.90;;;;;;5113820;28;20450;-81
2023/08/28 09:05:18;;;;;;;1.53;1.43;;;15.10;99.90;;;;;;5114180;28;20475;-81
2023/08/28 09:07:47;;;;;;;1.50;1.40;;;15.20;99.90;;;;;;5113713;28;20485;-81
2023/08/28 09:10:14;;;;;;;2.73;1.30;;;15.30;99.90;;;;;;5113766;28;20450;-80
2023/08/28 09:12:41;;;;;;;1.13;1.03;;;15.30;99.90;;;;;;5113737;28;20449;-81
2023/08/28 09:15:10;;;;;;;2.10;1.40;;;15.30;99.90;;;;;;5113687;28;20470;-81
2023/08/28 09:17:39;;;;;;;1.10;1.00;;;15.30;99.90;;;;;;5113681;28;20435;-81
2023/08/28 09:20:13;;;;;;;0.77;0.77;;;15.30;99.90;;;;;;5113386;28;20443;-81
2023/08/28 09:22:46;;;;;;;1.10;0.90;;;15.40;99.90;;;;;;5113401;28;20486;-80
2023/08/28 09:25:13;;;;;;;1.30;1.30;;;15.50;99.90;;;;;;5113322;28;21033;-80
2023/08/28 09:27:42;;;;;;;1.60;1.00;;;15.50;99.90;;;;;;5113574;28;20489;-81
2023/08/28 09:30:10;;;;;;;7.80;1.33;;;15.60;99.90;;;;;;5113272;28;20997;-81
2023/08/28 09:32:44;;;;;;;2.00;1.10;;;15.50;99.90;;;;;;5113553;28;20454;-80
2023/08/28 09:35:13;;;;;;;1.40;0.93;;;15.60;99.90;;;;;;5115014;28;20470;-81
2023/08/28 09:37:40;;;;;;;1.10;0.90;;;15.60;99.90;;;;;;5117423;28;20819;-81
2023/08/28 09:40:10;;;;;;;1.73;1.00;;;15.60;99.90;;;;;;5117328;28;20817;-81
2023/08/28 09:42:36;;;;;;;2.03;0.87;;;15.60;99.90;;;;;;5117654;28;20437;-80
2023/08/28 09:45:07;;;;;;;1.10;1.00;;;15.60;99.90;;;;;;5117555;28;20458;-81
2023/08/28 09:47:34;;;;;;;0.70;0.67;;;15.60;99.90;;;;;;5117234;28;20994;-82
2023/08/28 09:50:03;;;;;;;2.30;0.90;;;15.60;99.90;;;;;;5117198;28;20958;-81
2023/08/28 09:52:30;;;;;;;1.33;1.20;;;15.60;99.90;;;;;;5117425;28;20465;-81
2023/08/28 09:55:05;;;;;;;1.30;1.00;;;15.70;99.90;;;;;;5117341;28;20463;-81
2023/08/28 09:57:33;;;;;;;0.80;0.70;;;15.80;99.90;;;;;;5117348;28;20438;-82
2023/08/28 10:00:00;;;;;;;0.80;0.70;;;15.90;99.90;;;;;;5117281;28;20441;-82
2023/08/28 10:02:28;;;;;;;1.67;1.10;;;15.90;99.90;;;;;;5117280;28;20807;-82
2023/08/28 10:04:59;;;;;;;2.40;1.23;;;15.90;99.90;;;;;;5116682;28;21002;-81
2023/08/28 10:07:26;;;;;;;6.57;1.10;;;15.90;99.90;;;;;;5117013;27;20497;-81
2023/08/28 10:09:57;;;;;;;1.10;0.70;;;16.00;99.90;;;;;;5117085;28;20535;-82
2023/08/28 10:12:26;;;;;;;1.20;1.20;;;16.00;99.90;;;;;;5116998;28;20457;-82
2023/08/28 10:14:56;;;;;;;1.07;0.80;;;16.10;99.90;;;;;;5116914;28;20486;-81
2023/08/28 10:17:26;;;;;;;1.20;1.10;;;16.00;99.90;;;;;;5116917;28;20447;-81
2023/08/28 10:19:57;;;;;;;2.00;1.60;;;16.00;99.90;;;;;;5116938;28;20434;-81
2023/08/28 10:22:25;;;;;;;1.10;1.10;;;16.00;99.90;;;;;;5116902;28;20525;-81
2023/08/28 10:24:56;;;;;;;1.10;0.80;;;16.10;99.90;;;;;;5116823;28;20463;-81
2023/08/28 10:27:23;;;;;;;1.13;0.97;;;16.10;99.90;;;;;;5116477;28;20971;-81
2023/08/28 10:29:50;;;;;;;1.00;1.00;;;16.10;99.90;;;;;;5116725;28;20453;-82
2023/08/28 10:32:21;;;;;;;1.30;1.10;;;16.20;99.90;;;;;;5116687;28;20435;-82
2023/08/28 10:34:48;;;;;;;0.70;0.63;;;16.30;99.90;;;;;;5116292;28;20427;-81
2023/08/28 10:37:15;;;;;;;0.97;0.97;;;16.50;99.90;;;;;;5116271;28;20810;-82
2023/08/28 10:39:43;;;;;;;1.30;1.20;;;16.50;99.90;;;;;;5116517;28;20443;-81
2023/08/28 10:42:11;;;;;;;0.67;0.67;;;16.50;99.90;;;;;;5116491;28;20454;-82
2023/08/28 10:44:38;;;;;;;0.67;0.60;;;16.60;99.90;;;;;;5115979;28;20965;-82
2023/08/28 10:47:06;;;;;;;1.47;0.90;;;16.70;99.90;;;;;;5115526;28;20435;-82
2023/08/28 10:49:35;;;;;;;1.47;0.90;;;16.90;99.90;;;;;;5116349;28;20450;-82
2023/08/28 10:52:03;;;;;;;1.10;0.77;;;16.80;99.90;;;;;;5116278;28;20458;-82
2023/08/28 10:54:36;;;;;;;0.80;0.80;;;16.90;99.90;;;;;;5115922;27;20450;-82
2023/08/28 10:57:06;;;;;;;0.80;0.80;;;17.00;99.90;;;;;;5116254;28;20423;-82
2023/08/28 10:59:43;;;;;;;1.90;1.37;;;17.10;99.90;;;;;;5115858;28;20427;-81
2023/08/28 11:02:10;;;;;;;2.10;1.20;;;17.20;99.90;;;;;;5116118;28;20419;-82
2023/08/28 11:04:39;;;;;;;1.43;1.30;;;17.30;99.90;;;;;;5115817;28;20482;-82
2023/08/28 11:07:27;;;;;;;0.80;0.73;;;17.20;99.90;;;;;;5115890;28;20450;-82
2023/08/28 11:10:15;;;;;;;1.83;1.17;;;17.10;99.90;;;;;;5115516;28;20443;-81
2023/08/28 11:12:53;;;;;;;3.60;1.20;;;17.00;99.90;;;;;;5115939;27;20424;-81
2023/08/28 11:15:31;;;;;;;1.00;0.87;;;17.10;99.90;;;;;;5115779;28;20463;-80
2023/08/28 11:18:18;;;;;;;2.20;1.20;;;16.90;99.90;;;;;;5115494;28;20428;-81
2023/08/28 11:20:51;;;;;;;0.70;0.70;;;16.90;99.90;;;;;;5115791;28;20419;-81
2023/08/28 11:23:26;;;;;;;1.07;1.07;;;16.90;99.90;;;;;;5115550;28;20492;-81
2023/08/28 11:25:53;;;;;;;1.30;1.10;;;16.80;99.90;;;;;;5115598;28;20485;-81
2023/08/28 11:28:30;;;;;;;1.63;1.40;;;16.90;99.90;;;;;;5115249;28;20481;-80
2023/08/28 11:31:01;;;;;;;1.13;1.03;;;17.00;99.90;;;;;;5115585;28;20452;-81
2023/08/28 11:33:27;;;;;;;3.63;1.03;;;17.00;99.90;;;;;;5115497;27;20527;-81
2023/08/28 11:36:01;;;;;;;1.00;0.90;;;17.10;99.90;;;;;;5115358;28;20464;-81
2023/08/28 11:38:29;;;;;;;0.93;0.73;;;17.10;99.90;;;;;;5115158;28;20447;-81
2023/08/28 11:41:00;;;;;;;1.30;1.20;;;17.10;99.90;;;;;;5115039;28;20424;-81
2023/08/28 11:43:26;;;;;;;2.77;1.00;;;17.20;99.90;;;;;;5115044;28;20892;-80
2023/08/28 11:45:57;;;;;;;0.60;0.60;;;17.20;99.90;;;;;;5115190;28;20463;-82
2023/08/28 11:48:24;;;;;;;0.80;0.80;;;17.20;99.90;;;;;;5115137;28;20471;-81
2023/08/28 11:50:51;;;;;;;1.57;0.80;;;17.10;99.90;;;;;;5115157;28;20496;-80
2023/08/28 11:53:30;;;;;;;0.80;0.80;;;17.10;99.90;;;;;;5115088;28;20451;-81
2023/08/28 11:55:57;;;;;;;1.00;0.90;;;17.00;99.90;;;;;;5115029;27;20455;-81
2023/08/28 11:58:24;;;;;;;0.93;0.80;;;17.00;99.90;;;;;;5113921;28;20473;-81
2023/08/28 12:00:51;;;;;;;2.13;0.90;;;17.00;99.90;;;;;;5114918;28;20443;-81
2023/08/28 12:03:19;;;;;;;0.93;0.90;;;16.90;99.90;;;;;;5114647;28;20486;-81
2023/08/28 12:05:46;;;;;;;1.63;0.73;;;16.90;99.90;;;;;;5114827;28;20459;-81
2023/08/28 12:08:13;;;;;;;0.90;0.90;;;16.90;99.90;;;;;;5114404;28;20478;-81
2023/08/28 12:10:41;;;;;;;0.63;0.63;;;16.90;99.90;;;;;;5114768;28;20450;-81
2023/08/28 12:13:08;;;;;;;0.93;0.93;;;16.90;99.90;;;;;;5114463;28;20446;-81
2023/08/28 12:15:35;;;;;;;1.00;0.90;;;16.80;99.90;;;;;;5114987;28;20459;-81
2023/08/28 12:18:03;;;;;;;1.27;0.97;;;16.90;99.90;;;;;;5114688;28;20786;-81
2023/08/28 12:20:32;;;;;;;2.00;0.70;;;16.80;99.90;;;;;;5114606;28;20419;-80
2023/08/28 12:22:59;;;;;;;2.40;1.20;;;16.70;99.90;;;;;;5114506;27;20559;-81
2023/08/28 12:25:31;;;;;;;1.40;0.63;;;16.70;99.90;;;;;;5114183;28;20459;-80
2023/08/28 12:28:06;;;;;;;0.80;0.80;;;16.70;99.90;;;;;;5114096;28;20471;-80
2023/08/28 12:30:33;;;;;;;0.80;0.80;;;16.80;99.90;;;;;;5114159;28;20423;-80
2023/08/28 12:33:02;;;;;;;1.20;0.80;;;16.90;99.90;;;;;;5114339;28;20448;-80
2023/08/28 12:35:35;;;;;;;0.93;0.80;;;17.00;99.90;;;;;;5114242;28;20511;-80
2023/08/28 12:38:02;;;;;;;1.33;1.23;;;17.10;99.90;;;;;;5114300;28;20427;-79
2023/08/28 12:40:34;;;;;;;1.00;1.00;;;17.20;99.90;;;;;;5113949;28;20937;-80
2023/08/28 12:43:03;;;;;;;1.27;1.03;;;17.10;99.90;;;;;;5115080;28;20431;-80
2023/08/28 12:45:33;;;;;;;3.87;0.73;;;17.10;99.90;;;;;;5114121;28;20536;-80
2023/08/28 12:48:01;;;;;;;3.80;1.40;;;17.10;99.90;;;;;;5114075;28;20881;-80
2023/08/28 12:50:28;;;;;;;2.70;1.20;;;17.10;99.90;;;;;;5114109;28;20967;-80
2023/08/28 12:52:54;;;;;;;0.90;0.80;;;17.00;99.90;;;;;;5114137;28;20450;-87